Time;durP1;ratioP1;P1;durP2;ratioP2;P2;SDS_P1;SDS_P2;PMS_P1;PMS_P2;Temp;Humidity;BMP_temperature;BMP_pressure;BME280_temperature;BME280_humidity;BME280_pressure;Samples;Min_cycle;Max_cycle;Signal;HPM_P1;HPM_P2
2022/01/27 00:00:42;;;;;;;;;;;;;;;1.00;62.21;100367.78;5111755;28;794;-57
2022/01/27 00:03:25;;;;;;;;;;;;;;;0.98;62.48;100361.88;5111790;28;874;-57
2022/01/27 00:05:59;;;;;;;;;;;;;;;1.06;62.14;100367.59;5111653;28;1100;-57
2022/01/27 00:08:35;;;;;;;;;;;;;;;1.12;61.43;100350.75;5093522;28;1170;-57
2022/01/27 00:11:18;;;;;;;;;;;;;;;1.20;61.67;100371.72;5111647;28;1043;-56
2022/01/27 00:13:56;;;;;;;;;;;;;;;1.16;61.12;100365.34;5111935;28;838;-57
2022/01/27 00:16:26;;;;;;;;;;;;;;;1.18;61.82;100373.19;5111663;28;1204;-56
2022/01/27 00:18:53;;;;;;;;;;;;;;;1.16;61.25;100373.50;5111461;28;1983;-57
2022/01/27 00:21:21;;;;;;;;;;;;;;;1.18;61.18;100365.81;5111678;28;842;-56
2022/01/27 00:23:47;;;;;;;;;;;;;;;1.14;61.38;100367.56;5111583;28;790;-56
2022/01/27 00:26:15;;;;;;;;;;;;;;;1.08;62.55;100365.34;5111505;28;862;-57
2022/01/27 00:28:41;;;;;;;;;;;;;;;1.04;62.20;100362.47;5093408;28;1295;-57
2022/01/27 00:31:08;;;;;;;;;;;;;;;1.09;62.36;100370.50;5111532;28;858;-57
2022/01/27 00:33:35;;;;;;;;;;;;;;;1.08;62.23;100371.59;5111311;28;881;-57
2022/01/27 00:36:02;;;;;;;;;;;;;;;1.12;61.69;100363.59;5127350;28;1174;-56
2022/01/27 00:38:29;;;;;;;;;;;;;;;1.12;61.37;100379.94;5111616;28;1927;-57
2022/01/27 00:40:56;;;;;;;;;;;;;;;1.09;61.75;100362.31;5111391;28;874;-57
2022/01/27 00:43:22;;;;;;;;;;;;;;;1.09;61.68;100350.59;5111479;28;798;-56
2022/01/27 00:45:48;;;;;;;;;;;;;;;1.10;62.15;100331.22;5111500;28;826;-56
2022/01/27 00:48:17;;;;;;;;;;;;;;;1.06;61.86;100356.72;5111541;28;802;-57
2022/01/27 01:05:54;;;;;;;;;;;;;;;0.87;62.95;100360.59;5114762;28;766;-56
2022/01/27 01:19:41;;;;;;;;;;;;;;;0.85;62.91;100360.13;5102822;28;1913;-57
2022/01/27 01:32:56;;;;;;;;;;;;;;;0.91;61.68;100356.09;5114267;28;821;-57
2022/01/27 01:35:36;;;;;;;;;;;;;;;0.92;61.93;100355.00;5095930;28;2068;-57
2022/01/27 01:38:02;;;;;;;;;;;;;;;0.93;61.62;100353.84;5114105;28;1874;-57
2022/01/27 01:40:29;;;;;;;;;;;;;;;0.94;61.36;100357.38;5113953;28;933;-57
2022/01/27 01:42:55;;;;;;;;;;;;;;;0.94;61.59;100362.81;5114146;28;853;-57
2022/01/27 01:45:22;;;;;;;;;;;;;;;0.87;61.92;100330.66;5095883;28;839;-57
2022/01/27 01:47:49;;;;;;;;;;;;;;;0.86;60.95;100353.56;5113901;28;914;-57
2022/01/27 01:50:16;;;;;;;;;;;;;;;0.85;61.76;100357.38;5113871;28;1071;-57
2022/01/27 01:52:44;;;;;;;;;;;;;;;0.86;61.81;100366.38;5113910;28;890;-57
2022/01/27 01:55:10;;;;;;;;;;;;;;;0.85;61.39;100360.13;5113814;28;854;-57
2022/01/27 01:57:37;;;;;;;;;;;;;;;0.84;61.60;100363.97;5113692;28;1947;-57
2022/01/27 02:00:06;;;;;;;;;;;;;;;0.92;61.37;100368.59;5113562;28;850;-57
2022/01/27 02:02:32;;;;;;;;;;;;;;;0.94;60.88;100350.03;5113905;28;806;-56
2022/01/27 02:04:59;;;;;;;;;;;;;;;0.95;60.41;100361.72;5113270;28;837;-57
2022/01/27 02:18:00;;;;;;;;;;;;;;;0.96;60.63;100363.28;5112997;28;1902;-57
2022/01/27 02:20:27;;;;;;;;;;;;;;;0.94;60.82;100369.09;5113267;28;611;-57
2022/01/27 02:22:54;;;;;;;;;;;;;;;1.06;60.09;100378.50;5095582;28;810;-57
2022/01/27 02:25:20;;;;;;;;;;;;;;;1.07;59.90;100380.06;5113242;28;861;-57
2022/01/27 02:27:51;;;;;;;;;;;;;;;1.09;60.41;100380.56;5113490;28;810;-57
2022/01/27 02:30:17;;;;;;;;;;;;;;;1.08;59.91;100381.69;5112906;28;1040;-57
2022/01/27 02:32:45;;;;;;;;;;;;;;;1.06;59.60;100378.50;5113247;28;846;-57
2022/01/27 02:35:10;;;;;;;;;;;;;;;1.08;59.98;100368.09;5113141;28;882;-57
2022/01/27 02:37:39;;;;;;;;;;;;;;;1.06;59.91;100362.94;5113208;28;1877;-57
2022/01/27 02:40:06;;;;;;;;;;;;;;;1.09;59.89;100370.50;5113010;28;873;-57
2022/01/27 02:42:34;;;;;;;;;;;;;;;1.15;58.62;100371.91;5113132;28;811;-57
2022/01/27 02:45:04;;;;;;;;;;;;;;;1.16;59.42;100369.97;5112907;28;834;-57
2022/01/27 02:47:31;;;;;;;;;;;;;;;1.12;59.58;100382.66;5112688;28;858;-57
2022/01/27 02:49:57;;;;;;;;;;;;;;;1.09;59.43;100370.50;5112725;28;957;-57
2022/01/27 02:52:24;;;;;;;;;;;;;;;1.06;60.19;100376.56;5112549;28;974;-57
2022/01/27 02:54:50;;;;;;;;;;;;;;;1.04;60.42;100372.56;5112735;28;889;-57
2022/01/27 02:57:18;;;;;;;;;;;;;;;0.98;60.14;100378.19;5112604;28;842;-57
2022/01/27 02:59:46;;;;;;;;;;;;;;;1.00;60.71;100365.06;5112713;28;1885;-57
2022/01/27 03:02:12;;;;;;;;;;;;;;;1.01;60.51;100361.22;5112464;28;866;-57
2022/01/27 03:04:39;;;;;;;;;;;;;;;1.01;60.06;100363.94;5128383;27;2300;-57
2022/01/27 03:07:07;;;;;;;;;;;;;;;0.98;60.60;100361.03;5112515;28;937;-57
2022/01/27 03:09:34;;;;;;;;;;;;;;;1.01;60.79;100365.88;5112307;28;944;-57
2022/01/27 03:12:02;;;;;;;;;;;;;;;0.97;60.30;100362.97;5112251;28;933;-57
2022/01/27 03:14:29;;;;;;;;;;;;;;;0.96;60.25;100360.56;5112425;28;822;-57
2022/01/27 03:16:56;;;;;;;;;;;;;;;0.95;60.78;100376.09;5111408;28;1379;-57
2022/01/27 03:19:23;;;;;;;;;;;;;;;0.90;61.14;100368.13;5112191;28;1977;-57
2022/01/27 03:21:50;;;;;;;;;;;;;;;0.82;61.24;100382.53;5112208;28;928;-57
2022/01/27 03:24:17;;;;;;;;;;;;;;;0.74;61.91;100370.53;5112368;28;929;-57
2022/01/27 03:26:44;;;;;;;;;;;;;;;0.69;62.05;100378.88;5112257;28;826;-57
2022/01/27 03:29:11;;;;;;;;;;;;;;;0.66;62.68;100382.22;5112063;28;837;-57
2022/01/27 03:31:37;;;;;;;;;;;;;;;0.63;62.60;100384.81;5112056;28;921;-57
2022/01/27 03:34:03;;;;;;;;;;;;;;;0.65;62.33;100377.91;5112225;28;873;-57
2022/01/27 03:36:30;;;;;;;;;;;;;;;0.59;63.03;100377.28;5093850;28;847;-57
2022/01/27 03:38:57;;;;;;;;;;;;;;;0.57;63.32;100371.34;5111878;28;1976;-57
2022/01/27 03:41:24;;;;;;;;;;;;;;;0.56;62.60;100377.94;5093984;28;830;-57
2022/01/27 03:43:51;;;;;;;;;;;;;;;0.58;62.97;100372.19;5111990;28;854;-57
2022/01/27 03:46:18;;;;;;;;;;;;;;;0.57;62.65;100365.91;5112099;28;806;-56
2022/01/27 03:48:44;;;;;;;;;;;;;;;0.58;62.47;100364.81;5111919;28;896;-56
2022/01/27 03:51:10;;;;;;;;;;;;;;;0.61;62.42;100375.03;5111981;28;900;-57
2022/01/27 03:53:37;;;;;;;;;;;;;;;0.60;62.52;100373.44;5111785;28;878;-57
2022/01/27 03:56:03;;;;;;;;;;;;;;;0.62;62.31;100378.56;5111863;28;857;-57
2022/01/27 03:58:29;;;;;;;;;;;;;;;0.60;62.27;100384.34;5111821;28;1918;-57
2022/01/27 04:00:55;;;;;;;;;;;;;;;0.61;62.15;100391.34;5111890;28;940;-57
2022/01/27 04:03:23;;;;;;;;;;;;;;;0.65;62.44;100386.09;5112100;28;791;-57
2022/01/27 04:05:54;;;;;;;;;;;;;;;0.64;62.44;100387.22;5111849;28;928;-57
2022/01/27 04:08:21;;;;;;;;;;;;;;;0.68;62.34;100392.78;5111823;28;873;-57
2022/01/27 04:10:48;;;;;;;;;;;;;;;0.67;62.40;100391.22;5111665;28;842;-57
2022/01/27 04:13:15;;;;;;;;;;;;;;;0.66;62.10;100405.91;5111704;28;846;-57
2022/01/27 04:15:43;;;;;;;;;;;;;;;0.69;62.16;100408.03;5111858;28;932;-57
2022/01/27 04:18:09;;;;;;;;;;;;;;;0.72;61.86;100419.03;5111413;28;1914;-57
2022/01/27 04:20:37;;;;;;;;;;;;;;;0.70;62.45;100415.03;5111612;28;964;-57
2022/01/27 04:23:03;;;;;;;;;;;;;;;0.77;61.70;100412.66;5111624;28;849;-57
2022/01/27 04:25:30;;;;;;;;;;;;;;;0.90;61.37;100413.59;5111478;28;938;-57
2022/01/27 04:28:01;;;;;;;;;;;;;;;1.05;61.20;100415.03;5113365;28;814;-57
2022/01/27 04:30:28;;;;;;;;;;;;;;;1.17;60.12;100402.34;5115526;28;794;-57
2022/01/27 04:32:59;;;;;;;;;;;;;;;1.21;60.08;100421.53;5115346;28;799;-57
2022/01/27 04:35:29;;;;;;;;;;;;;;;1.30;59.33;100424.22;5115653;28;940;-57
2022/01/27 04:40:45;;;;;;;;;;;;;;;1.31;59.66;100423.91;5115288;28;839;-57
2022/01/27 04:45:58;;;;;;;;;;;;;;;1.39;59.47;100428.53;5115140;28;680;-57
2022/01/27 04:48:26;;;;;;;;;;;;;;;1.43;59.76;100424.06;5115100;28;1045;-57
2022/01/27 04:50:54;;;;;;;;;;;;;;;1.43;58.90;100434.16;5114944;28;917;-57
2022/01/27 04:53:27;;;;;;;;;;;;;;;1.45;59.35;100429.16;5114972;28;901;-57
2022/01/27 04:55:57;;;;;;;;;;;;;;;1.45;59.51;100429.16;5115061;28;862;-57
2022/01/27 04:58:31;;;;;;;;;;;;;;;1.49;58.65;100441.00;5096580;28;1949;-57
2022/01/27 05:00:59;;;;;;;;;;;;;;;1.48;59.43;100436.69;5114823;28;933;-57
2022/01/27 05:03:39;;;;;;;;;;;;;;;1.51;59.02;100440.69;5115055;28;830;-57
2022/01/27 05:06:05;;;;;;;;;;;;;;;1.49;58.88;100440.19;5114734;28;878;-57
2022/01/27 05:08:32;;;;;;;;;;;;;;;1.53;59.32;100441.16;5114742;28;936;-57
2022/01/27 05:11:05;;;;;;;;;;;;;;;1.55;59.49;100445.16;5114647;28;948;-58
2022/01/27 05:13:40;;;;;;;;;;;;;;;1.55;58.89;100456.03;5096400;28;1371;-57
2022/01/27 05:16:07;;;;;;;;;;;;;;;1.53;59.29;100463.75;5114044;28;1099;-57
2022/01/27 05:18:33;;;;;;;;;;;;;;;1.54;59.03;100454.47;5114451;28;1913;-57
2022/01/27 05:21:00;;;;;;;;;;;;;;;1.50;59.25;100458.97;5114758;28;798;-57
2022/01/27 05:23:26;;;;;;;;;;;;;;;1.52;59.73;100461.38;5114516;28;849;-57
2022/01/27 05:25:53;;;;;;;;;;;;;;;1.48;59.79;100458.47;5114385;28;823;-57
2022/01/27 05:28:19;;;;;;;;;;;;;;;1.52;59.80;100464.09;5114410;28;810;-57
2022/01/27 05:30:46;;;;;;;;;;;;;;;1.53;59.69;100462.94;5114299;28;823;-57
2022/01/27 05:33:12;;;;;;;;;;;;;;;1.52;59.05;100462.16;5114291;28;842;-57
2022/01/27 05:35:39;;;;;;;;;;;;;;;1.59;58.76;100465.16;5114285;28;866;-57
2022/01/27 05:38:05;;;;;;;;;;;;;;;1.69;58.44;100472.22;5114143;28;1890;-57
2022/01/27 05:40:32;;;;;;;;;;;;;;;1.68;58.90;100467.06;5095043;28;1358;-57
2022/01/27 05:42:58;;;;;;;;;;;;;;;1.70;58.50;100470.28;5114106;28;884;-57
2022/01/27 05:45:25;;;;;;;;;;;;;;;1.76;58.84;100471.69;5114326;28;876;-57
2022/01/27 05:47:51;;;;;;;;;;;;;;;1.73;58.33;100461.44;5114169;28;870;-57
2022/01/27 05:50:18;;;;;;;;;;;;;;;1.74;58.92;100469.28;5114020;28;830;-57
2022/01/27 05:52:44;;;;;;;;;;;;;;;1.70;59.11;100456.66;5114088;28;880;-57
2022/01/27 05:55:11;;;;;;;;;;;;;;;1.73;58.88;100469.59;5113741;28;887;-57
2022/01/27 05:57:38;;;;;;;;;;;;;;;1.75;58.64;100473.63;5113549;28;1947;-57
2022/01/27 06:00:05;;;;;;;;;;;;;;;1.77;58.68;100476.84;5113772;28;830;-57
2022/01/27 06:02:31;;;;;;;;;;;;;;;1.79;59.12;100477.31;5095363;28;1258;-57
2022/01/27 06:04:57;;;;;;;;;;;;;;;1.79;58.69;100490.09;5113632;28;873;-57
2022/01/27 06:07:24;;;;;;;;;;;;;;;1.77;59.47;100490.47;5113617;28;827;-57
2022/01/27 06:09:52;;;;;;;;;;;;;;;1.87;58.71;100486.56;5113657;28;802;-57
2022/01/27 06:12:18;;;;;;;;;;;;;;;1.91;59.14;100503.06;5113420;28;929;-57
2022/01/27 06:14:45;;;;;;;;;;;;;;;1.90;59.33;100504.19;5113547;28;798;-57
2022/01/27 06:17:12;;;;;;;;;;;;;;;1.89;59.43;100517.00;5090674;28;1347;-57
2022/01/27 06:19:38;;;;;;;;;;;;;;;1.90;59.29;100515.09;5072468;28;1989;-57
2022/01/27 06:22:11;;;;;;;;;;;;;;;1.97;58.84;100510.72;5072543;28;870;-57
2022/01/27 06:24:44;;;;;;;;;;;;;;;1.93;58.41;100509.78;5072460;28;946;-57
2022/01/27 06:27:11;;;;;;;;;;;;;;;1.96;58.75;100511.88;5072470;28;883;-57
2022/01/27 06:29:38;;;;;;;;;;;;;;;1.99;58.76;100519.38;5072369;28;925;-57
2022/01/27 06:32:05;;;;;;;;;;;;;;;1.94;58.74;100513.31;5072906;28;934;-57
2022/01/27 06:34:31;;;;;;;;;;;;;;;1.95;58.31;100515.72;5072371;28;910;-57
2022/01/27 06:36:57;;;;;;;;;;;;;;;2.04;57.87;100519.19;5072170;28;805;-57
2022/01/27 06:39:24;;;;;;;;;;;;;;;2.08;58.29;100519.34;5072314;28;1957;-57
2022/01/27 06:41:51;;;;;;;;;;;;;;;2.13;58.37;100524.63;5072186;28;854;-57
2022/01/27 06:44:18;;;;;;;;;;;;;;;2.17;57.01;100517.38;5072208;28;1045;-57
2022/01/27 06:46:44;;;;;;;;;;;;;;;2.24;57.55;100520.41;5072164;28;819;-57
2022/01/27 06:49:16;;;;;;;;;;;;;;;2.28;56.82;100519.75;5071974;28;927;-57
2022/01/27 06:51:43;;;;;;;;;;;;;;;2.32;56.27;100517.94;5054649;28;1621;-57
2022/01/27 06:54:09;;;;;;;;;;;;;;;2.37;55.91;100523.22;5072552;28;882;-57
2022/01/27 06:56:36;;;;;;;;;;;;;;;2.39;55.68;100513.59;5072252;28;783;-57
2022/01/27 06:59:03;;;;;;;;;;;;;;;2.42;55.54;100514.84;5071991;28;1947;-57
2022/01/27 07:01:29;;;;;;;;;;;;;;;2.41;56.19;100519.50;5071807;28;870;-57
2022/01/27 07:03:55;;;;;;;;;;;;;;;2.41;56.18;100518.69;5071667;28;881;-57
2022/01/27 07:06:22;;;;;;;;;;;;;;;2.42;56.45;100534.75;5070589;28;843;-57
2022/01/27 07:08:48;;;;;;;;;;;;;;;2.47;55.47;100528.28;5071738;28;903;-57
2022/01/27 07:11:14;;;;;;;;;;;;;;;2.56;55.41;100530.97;5054136;28;878;-57
2022/01/27 07:13:41;;;;;;;;;;;;;;;2.64;55.82;100533.66;5071759;28;579;-57
2022/01/27 07:16:07;;;;;;;;;;;;;;;2.65;55.80;100542.66;5073808;28;1196;-57
2022/01/27 07:18:39;;;;;;;;;;;;;;;2.58;56.96;100545.09;5091619;28;2016;-57
2022/01/27 07:21:06;;;;;;;;;;;;;;;2.52;57.25;100551.84;5092358;28;803;-57
2022/01/27 07:23:33;;;;;;;;;;;;;;;2.48;57.91;100549.00;5091907;28;830;-57
2022/01/27 07:25:59;;;;;;;;;;;;;;;2.48;58.82;100546.28;5091849;28;1306;-57
2022/01/27 07:28:26;;;;;;;;;;;;;;;2.47;58.45;100544.66;5091734;28;862;-57
2022/01/27 07:30:52;;;;;;;;;;;;;;;2.44;58.78;100539.88;5091767;28;905;-57
2022/01/27 07:33:19;;;;;;;;;;;;;;;2.39;59.87;100540.88;5091995;28;862;-57
2022/01/27 07:35:45;;;;;;;;;;;;;;;2.42;59.62;100542.13;5091635;28;925;-57
2022/01/27 07:38:11;;;;;;;;;;;;;;;2.45;60.41;100542.28;5091463;28;1906;-57
2022/01/27 07:40:38;;;;;;;;;;;;;;;2.60;59.48;100545.56;5091618;28;811;-57
2022/01/27 07:43:05;;;;;;;;;;;;;;;2.78;58.79;100543.53;5091499;28;906;-57
2022/01/27 07:45:31;;;;;;;;;;;;;;;2.90;58.52;100537.34;5091603;28;814;-57
2022/01/27 07:47:57;;;;;;;;;;;;;;;2.94;58.44;100528.13;5091512;28;965;-57
2022/01/27 07:50:28;;;;;;;;;;;;;;;3.02;58.30;100532.72;5091431;28;884;-57
2022/01/27 07:52:55;;;;;;;;;;;;;;;3.11;57.86;100538.13;5091753;28;948;-57
2022/01/27 07:55:22;;;;;;;;;;;;;;;3.13;57.34;100533.13;5091343;28;806;-57
2022/01/27 07:57:48;;;;;;;;;;;;;;;3.20;57.25;100527.94;5091381;28;1889;-57
2022/01/27 08:00:14;;;;;;;;;;;;;;;3.24;56.57;100536.25;5091511;28;842;-57
2022/01/27 08:02:41;;;;;;;;;;;;;;;3.40;56.34;100541.91;5092877;28;827;-57
2022/01/27 08:05:08;;;;;;;;;;;;;;;3.41;56.68;100530.63;5095500;28;924;-57
2022/01/27 08:07:35;;;;;;;;;;;;;;;3.44;56.39;100531.91;5095686;28;818;-57
2022/01/27 08:10:01;;;;;;;;;;;;;;;3.54;56.44;100530.66;5095747;28;916;-57
2022/01/27 08:12:28;;;;;;;;;;;;;;;3.52;55.88;100527.47;5095415;28;842;-57
2022/01/27 08:14:54;;;;;;;;;;;;;;;3.61;56.40;100522.75;5095371;28;997;-57
2022/01/27 08:17:21;;;;;;;;;;;;;;;3.90;55.57;100521.75;5095064;28;1219;-57
2022/01/27 08:19:47;;;;;;;;;;;;;;;4.13;55.32;100519.38;5095387;28;1909;-57
2022/01/27 08:22:14;;;;;;;;;;;;;;;4.35;54.68;100525.53;5095261;28;811;-57
2022/01/27 08:24:41;;;;;;;;;;;;;;;4.47;53.33;100517.34;5095273;28;803;-57
2022/01/27 08:27:11;;;;;;;;;;;;;;;4.61;53.33;100514.22;5095179;28;881;-57
2022/01/27 08:29:41;;;;;;;;;;;;;;;4.68;53.54;100526.19;5095102;28;834;-57
2022/01/27 08:32:15;;;;;;;;;;;;;;;4.53;52.65;100521.44;5094889;28;882;-55
2022/01/27 08:34:42;;;;;;;;;;;;;;;4.27;53.33;100524.53;5076651;28;1382;-55
2022/01/27 08:37:13;;;;;;;;;;;;;;;4.38;53.75;100533.09;5110757;28;888;-55
2022/01/27 08:39:39;;;;;;;;;;;;;;;4.46;53.13;100535.69;5095163;28;1953;-55
2022/01/27 08:42:07;;;;;;;;;;;;;;;4.62;52.97;100532.25;5094779;28;969;-55
2022/01/27 08:44:34;;;;;;;;;;;;;;;4.76;52.88;100537.34;5094699;28;946;-57
2022/01/27 08:47:00;;;;;;;;;;;;;;;5.21;51.77;100544.56;5094850;28;842;-56
2022/01/27 08:49:28;;;;;;;;;;;;;;;5.47;51.01;100541.38;5094694;28;889;-55
2022/01/27 08:51:55;;;;;;;;;;;;;;;5.48;51.17;100546.53;5094638;28;916;-57
2022/01/27 08:54:21;;;;;;;;;;;;;;;5.61;50.32;100536.28;5094913;28;819;-55
2022/01/27 08:56:48;;;;;;;;;;;;;;;5.81;50.33;100537.19;5094594;28;894;-55
2022/01/27 08:59:16;;;;;;;;;;;;;;;5.77;50.36;100543.75;5094356;28;1891;-55
2022/01/27 09:01:44;;;;;;;;;;;;;;;5.77;50.68;100539.06;5094212;28;910;-56
2022/01/27 09:04:11;;;;;;;;;;;;;;;5.58;50.25;100536.19;5094505;28;878;-56
2022/01/27 09:06:38;;;;;;;;;;;;;;;5.36;50.13;100527.38;5094500;28;946;-57
2022/01/27 09:09:05;;;;;;;;;;;;;;;5.31;50.77;100524.88;5094420;28;795;-57
2022/01/27 09:11:32;;;;;;;;;;;;;;;5.48;50.05;100530.06;5094128;28;934;-57
2022/01/27 09:14:00;;;;;;;;;;;;;;;5.24;48.61;100521.94;5074911;28;1350;-57
2022/01/27 09:16:28;;;;;;;;;;;;;;;4.89;49.42;100525.25;5093972;28;1365;-57
2022/01/27 09:18:57;;;;;;;;;;;;;;;5.08;49.29;100522.69;5094170;28;1913;-57
2022/01/27 09:21:26;;;;;;;;;;;;;;;5.25;48.89;100526.28;5093993;28;878;-57
2022/01/27 09:23:54;;;;;;;;;;;;;;;5.26;48.33;100514.16;5093929;28;992;-55
2022/01/27 09:29:13;;;;;;;;;;;;;;;5.02;49.05;100518.59;5069955;28;1455;-58
2022/01/27 09:31:39;;;;;;;;;;;;;;;5.25;49.30;100509.84;5094304;28;822;-57
2022/01/27 09:34:05;;;;;;;;;;;;;;;5.21;48.62;100503.47;5094552;28;827;-56
2022/01/27 09:36:32;;;;;;;;;;;;;;;5.10;48.54;100487.50;5094135;28;822;-54
2022/01/27 09:38:58;;;;;;;;;;;;;;;5.01;48.86;100500.53;5075620;28;1882;-57
2022/01/27 09:41:27;;;;;;;;;;;;;;;5.06;47.71;100513.22;5093824;28;795;-56
2022/01/27 09:43:54;;;;;;;;;;;;;;;5.23;48.11;100512.13;5093574;28;934;-55
2022/01/27 09:46:22;;;;;;;;;;;;;;;5.22;47.55;100502.31;5075544;28;818;-58
2022/01/27 09:48:50;;;;;;;;;;;;;;;5.37;48.10;100504.28;5075865;28;779;-55
2022/01/27 09:51:26;;;;;;;;;;;;;;;5.65;47.18;100498.75;5093482;28;922;-56
2022/01/27 09:53:55;;;;;;;;;;;;;;;5.60;47.41;100487.28;5093328;28;972;-56
2022/01/27 09:56:23;;;;;;;;;;;;;;;5.44;48.03;100492.72;5093482;28;928;-57
2022/01/27 09:58:50;;;;;;;;;;;;;;;5.44;47.27;100474.34;5093347;28;1882;-57
2022/01/27 10:01:17;;;;;;;;;;;;;;;5.39;47.14;100466.34;5075349;28;810;-57
2022/01/27 10:03:53;;;;;;;;;;;;;;;5.43;47.32;100460.97;5093412;28;794;-57
2022/01/27 10:06:21;;;;;;;;;;;;;;;5.38;46.33;100470.25;5093458;28;842;-57
2022/01/27 10:09:07;;;;;;;;;;;;;;;5.24;45.36;100472.59;5093142;28;1184;-58
2022/01/27 10:11:34;;;;;;;;;;;;;;;5.07;45.78;100485.44;5082641;28;2144;-56
2022/01/27 10:14:14;;;;;;;;;;;;;;;5.07;45.48;100471.75;5093369;28;877;-55
2022/01/27 10:16:42;;;;;;;;;;;;;;;5.14;45.43;100479.38;5093062;28;1196;-57
2022/01/27 10:19:10;;;;;;;;;;;;;;;5.24;45.83;100475.34;5092890;28;1902;-57
2022/01/27 10:21:37;;;;;;;;;;;;;;;5.25;45.04;100482.44;5092857;28;1219;-57
2022/01/27 10:24:23;;;;;;;;;;;;;;;5.30;45.32;100482.97;5092884;28;850;-57
2022/01/27 10:27:16;;;;;;;;;;;;;;;5.43;44.91;100469.19;5092464;28;905;-58
2022/01/27 10:30:03;;;;;;;;;;;;;;;5.54;44.77;100470.25;5084391;28;1624;-57
2022/01/27 10:32:40;;;;;;;;;;;;;;;5.54;45.06;100475.75;5092913;28;926;-57
2022/01/27 10:35:07;;;;;;;;;;;;;;;5.66;44.22;100467.47;5074793;28;1635;-57
2022/01/27 10:37:51;;;;;;;;;;;;;;;5.66;44.05;100466.66;5092580;28;847;-57
2022/01/27 10:40:29;;;;;;;;;;;;;;;5.64;44.66;100477.97;5092788;28;862;-57
2022/01/27 10:43:07;;;;;;;;;;;;;;;5.75;44.67;100467.28;5092439;28;898;-57
2022/01/27 10:45:35;;;;;;;;;;;;;;;5.67;45.12;100458.06;5092426;28;930;-57
2022/01/27 10:48:07;;;;;;;;;;;;;;;5.50;44.03;100459.22;5092349;28;847;-58
2022/01/27 10:51:33;;;;;;;;;;;;;;;5.24;44.55;100461.66;5092304;28;855;-57
2022/01/27 10:54:06;;;;;;;;;;;;;;;5.38;44.92;100455.75;5080767;28;1461;-57
2022/01/27 10:56:34;;;;;;;;;;;;;;;5.25;45.30;100453.06;5091424;28;1767;-57
2022/01/27 10:59:02;;;;;;;;;;;;;;;5.24;45.92;100445.19;5092038;28;1973;-57
2022/01/27 11:01:37;;;;;;;;;;;;;;;5.26;45.57;100451.91;5092417;28;815;-57
2022/01/27 11:04:05;;;;;;;;;;;;;;;5.28;45.03;100452.38;5092403;28;910;-57
2022/01/27 11:06:33;;;;;;;;;;;;;;;5.28;45.46;100448.84;5092563;28;803;-57
2022/01/27 11:09:07;;;;;;;;;;;;;;;5.32;45.35;100444.25;5073745;28;1309;-57
2022/01/27 11:11:34;;;;;;;;;;;;;;;5.45;45.19;100448.50;5091922;28;910;-57
2022/01/27 11:14:00;;;;;;;;;;;;;;;5.60;45.19;100446.94;5073828;28;914;-57
2022/01/27 11:16:34;;;;;;;;;;;;;;;5.68;44.82;100440.47;5092070;28;1335;-57
2022/01/27 11:19:16;;;;;;;;;;;;;;;5.81;44.49;100437.66;5091877;28;1985;-57
2022/01/27 11:21:45;;;;;;;;;;;;;;;5.76;44.87;100435.97;5073745;28;762;-57
2022/01/27 11:24:26;;;;;;;;;;;;;;;5.71;44.28;100441.72;5091840;28;949;-57
2022/01/27 11:26:55;;;;;;;;;;;;;;;5.85;44.49;100435.78;5091801;28;913;-57
2022/01/27 11:29:23;;;;;;;;;;;;;;;5.92;44.29;100439.50;5091930;28;878;-57
2022/01/27 11:31:58;;;;;;;;;;;;;;;6.19;43.51;100439.75;5091818;28;830;-55
2022/01/27 11:34:43;;;;;;;;;;;;;;;6.63;42.43;100425.78;5092014;28;791;-57
2022/01/27 11:37:09;;;;;;;;;;;;;;;6.94;41.24;100424.09;5091069;28;838;-57
2022/01/27 11:39:53;;;;;;;;;;;;;;;7.07;41.13;100421.97;5091684;28;1890;-57
2022/01/27 11:42:20;;;;;;;;;;;;;;;6.91;41.58;100425.59;5091572;28;894;-57
2022/01/27 11:44:48;;;;;;;;;;;;;;;6.82;41.04;100418.72;5091562;28;870;-57
2022/01/27 11:47:18;;;;;;;;;;;;;;;6.71;41.63;100410.28;5091503;28;925;-57
2022/01/27 11:49:57;;;;;;;;;;;;;;;6.56;42.24;100422.13;5091476;28;913;-57
2022/01/27 11:52:27;;;;;;;;;;;;;;;6.50;42.44;100408.66;5091538;28;948;-57
2022/01/27 11:55:13;;;;;;;;;;;;;;;6.47;41.57;100417.63;5091415;28;931;-58
2022/01/27 11:57:40;;;;;;;;;;;;;;;6.30;42.35;100407.06;5091945;28;846;-57
2022/01/27 12:00:16;;;;;;;;;;;;;;;6.32;42.20;100411.03;5073310;28;1894;-58
2022/01/27 12:03:01;;;;;;;;;;;;;;;6.62;42.14;100407.75;5091674;28;870;-57
2022/01/27 12:05:31;;;;;;;;;;;;;;;6.70;42.40;100411.41;5091459;28;873;-58
2022/01/27 12:08:09;;;;;;;;;;;;;;;6.73;42.14;100400.50;5107146;28;810;-58
2022/01/27 12:10:44;;;;;;;;;;;;;;;6.69;42.18;100394.13;5091324;28;882;-58
2022/01/27 12:13:33;;;;;;;;;;;;;;;6.64;41.64;100390.91;5091684;28;814;-58
2022/01/27 12:16:24;;;;;;;;;;;;;;;6.54;41.99;100393.06;5091010;28;1219;-57
2022/01/27 12:19:11;;;;;;;;;;;;;;;6.54;42.25;100393.06;5091313;28;1905;-57
2022/01/27 12:21:56;;;;;;;;;;;;;;;7.54;41.70;100385.09;5091059;28;1325;-58
2022/01/27 12:24:25;;;;;;;;;;;;;;;8.59;39.34;100389.00;5091207;28;961;-57
2022/01/27 12:26:53;;;;;;;;;;;;;;;9.03;37.96;100379.28;5091154;28;846;-58
2022/01/27 12:29:27;;;;;;;;;;;;;;;9.37;37.60;100385.53;5107024;28;787;-58
2022/01/27 12:31:55;;;;;;;;;;;;;;;9.60;36.96;100379.81;5091712;28;948;-58
2022/01/27 12:34:22;;;;;;;;;;;;;;;9.63;36.86;100389.28;5091490;28;795;-59
2022/01/27 12:36:59;;;;;;;;;;;;;;;8.86;37.12;100379.88;5091954;28;743;-58
2022/01/27 12:39:26;;;;;;;;;;;;;;;7.99;38.08;100380.69;5090905;28;1882;-58
2022/01/27 12:41:54;;;;;;;;;;;;;;;7.38;39.77;100385.22;5073015;28;1327;-58
2022/01/27 12:44:22;;;;;;;;;;;;;;;6.97;39.68;100384.06;5072955;28;1239;-58
2022/01/27 12:47:08;;;;;;;;;;;;;;;6.69;40.39;100387.84;5091007;28;850;-58
2022/01/27 12:49:40;;;;;;;;;;;;;;;6.66;40.97;100381.13;5093586;28;939;-58
2022/01/27 12:52:08;;;;;;;;;;;;;;;6.65;41.06;100382.28;5094645;28;893;-58
2022/01/27 12:54:35;;;;;;;;;;;;;;;6.70;40.97;100390.25;5094626;28;830;-57
2022/01/27 12:57:01;;;;;;;;;;;;;;;6.75;40.59;100381.72;5094568;28;917;-58
2022/01/27 12:59:34;;;;;;;;;;;;;;;6.73;41.01;100384.03;5076283;28;1881;-58
2022/01/27 13:02:11;;;;;;;;;;;;;;;6.65;41.41;100382.28;5094755;28;937;-58
2022/01/27 13:04:38;;;;;;;;;;;;;;;6.46;41.19;100382.28;5094525;28;795;-58
2022/01/27 13:07:05;;;;;;;;;;;;;;;6.44;41.59;100381.84;5076346;28;2014;-58
2022/01/27 13:09:34;;;;;;;;;;;;;;;6.37;41.86;100371.50;5094484;28;849;-58
2022/01/27 13:12:10;;;;;;;;;;;;;;;6.39;42.42;100371.94;5076333;28;1416;-59
2022/01/27 13:14:49;;;;;;;;;;;;;;;6.24;42.76;100387.31;5094393;28;913;-58
2022/01/27 13:17:27;;;;;;;;;;;;;;;6.14;42.76;100382.38;5082757;28;1373;-58
2022/01/27 13:19:58;;;;;;;;;;;;;;;6.07;43.12;100380.28;5073703;28;1981;-58
2022/01/27 13:22:33;;;;;;;;;;;;;;;6.10;42.58;100373.28;5073777;28;938;-58
2022/01/27 13:25:01;;;;;;;;;;;;;;;6.12;42.95;100377.28;5073840;28;921;-58
2022/01/27 13:27:27;;;;;;;;;;;;;;;6.09;42.99;100382.66;5073714;28;867;-58
2022/01/27 13:29:58;;;;;;;;;;;;;;;5.90;43.06;100377.88;5073789;28;823;-58
2022/01/27 13:32:25;;;;;;;;;;;;;;;5.81;43.12;100380.81;5073604;28;874;-58
2022/01/27 13:34:51;;;;;;;;;;;;;;;5.73;43.35;100376.31;5073626;28;925;-58
2022/01/27 13:37:28;;;;;;;;;;;;;;;5.79;43.32;100383.13;5073429;28;898;-58
2022/01/27 13:42:22;;;;;;;;;;;;;;;5.67;43.80;100384.00;5073472;28;797;-58
2022/01/27 13:44:56;;;;;;;;;;;;;;;5.67;44.51;100381.28;5073263;28;866;-58
2022/01/27 13:47:39;;;;;;;;;;;;;;;5.57;43.92;100383.75;5073484;28;863;-58
2022/01/27 13:50:07;;;;;;;;;;;;;;;5.49;44.66;100380.84;5073234;28;850;-58
2022/01/27 13:52:43;;;;;;;;;;;;;;;5.46;45.10;100376.09;5089297;28;917;-58
2022/01/27 13:55:12;;;;;;;;;;;;;;;5.51;44.69;100380.50;5073290;28;878;-58
2022/01/27 13:57:48;;;;;;;;;;;;;;;5.47;44.85;100380.41;5073436;28;800;-58
2022/01/27 14:00:20;;;;;;;;;;;;;;;5.46;44.92;100378.81;5072372;28;1886;-58
2022/01/27 14:02:45;;;;;;;;;;;;;;;5.39;44.57;100377.84;5073277;28;922;-58
2022/01/27 14:05:13;;;;;;;;;;;;;;;5.33;44.87;100374.56;5072844;28;877;-57
2022/01/27 14:07:40;;;;;;;;;;;;;;;5.28;45.57;100380.31;5073003;28;830;-58
2022/01/27 14:10:08;;;;;;;;;;;;;;;5.10;45.50;100377.13;5072796;28;843;-58
2022/01/27 14:12:48;;;;;;;;;;;;;;;4.95;46.38;100381.41;5088396;28;948;-58
2022/01/27 14:15:31;;;;;;;;;;;;;;;4.84;46.75;100381.13;5072788;28;1059;-58